Time;durP1;ratioP1;P1;durP2;ratioP2;P2;SDS_P1;SDS_P2;PMS_P1;PMS_P2;Temp;Humidity;BMP_temperature;BMP_pressure;BME280_temperature;BME280_humidity;BME280_pressure;Samples;Min_cycle;Max_cycle;Signal;HPM_P1;HPM_P2
2021/03/24 00:00:47;;;;;;;11.20;6.55;;;4.10;92.90;;;;;;5073041;28;20024;-78
2021/03/24 00:03:13;;;;;;;14.45;10.70;;;4.20;92.90;;;;;;5059889;28;20025;-78
2021/03/24 00:05:45;;;;;;;18.95;11.35;;;4.40;92.10;;;;;;5074112;28;20095;-78
2021/03/24 00:08:12;;;;;;;20.95;11.57;;;4.10;91.20;;;;;;5073562;28;20027;-78
2021/03/24 00:10:38;;;;;;;11.20;7.60;;;3.90;92.00;;;;;;5074073;28;20501;-78
2021/03/24 00:13:05;;;;;;;13.30;7.43;;;3.80;93.20;;;;;;5073062;28;20039;-78
2021/03/24 00:15:32;;;;;;;13.82;7.72;;;3.70;92.90;;;;;;5072722;28;20028;-78
2021/03/24 00:17:58;;;;;;;18.52;14.55;;;3.60;92.80;;;;;;5073563;28;20520;-78
2021/03/24 00:20:29;;;;;;;36.35;21.77;;;3.60;93.20;;;;;;5073535;28;20493;-78
2021/03/24 00:22:55;;;;;;;11.98;6.07;;;3.80;93.10;;;;;;5072969;28;20039;-78
2021/03/24 00:25:22;;;;;;;14.45;7.80;;;3.90;92.60;;;;;;5072668;28;20108;-78
2021/03/24 00:27:50;;;;;;;9.77;5.50;;;3.80;92.40;;;;;;5072711;28;20028;-79
2021/03/24 00:30:23;;;;;;;9.90;5.40;;;3.90;93.10;;;;;;5069116;28;20082;-78
2021/03/24 00:32:49;;;;;;;13.38;8.10;;;3.90;91.50;;;;;;5073367;28;20024;-79
2021/03/24 00:35:14;;;;;;;8.85;4.88;;;3.50;91.70;;;;;;5073006;28;20104;-79
2021/03/24 00:37:40;;;;;;;10.90;4.28;;;3.20;92.00;;;;;;5073178;28;20534;-78
2021/03/24 00:40:11;;;;;;;6.75;3.80;;;2.80;92.60;;;;;;5073053;28;20081;-78
2021/03/24 00:42:37;;;;;;;11.68;6.38;;;2.80;93.00;;;;;;5073123;28;20021;-78
2021/03/24 00:45:05;;;;;;;6.43;4.43;;;3.00;94.90;;;;;;5053590;28;20094;-78
2021/03/24 00:47:30;;;;;;;7.40;4.13;;;3.20;94.70;;;;;;5071917;28;20469;-78
2021/03/24 00:49:56;;;;;;;13.75;7.28;;;3.50;94.60;;;;;;5053878;28;20055;-78
2021/03/24 00:52:22;;;;;;;17.58;9.30;;;3.50;94.00;;;;;;5069029;28;20039;-78
2021/03/24 00:54:48;;;;;;;6.75;5.03;;;3.50;92.80;;;;;;5073205;28;20111;-78
2021/03/24 00:57:13;;;;;;;8.95;4.47;;;3.20;92.60;;;;;;5069513;28;20035;-78
2021/03/24 00:59:39;;;;;;;8.75;6.25;;;3.00;92.70;;;;;;5072771;28;20040;-79
2021/03/24 01:02:05;;;;;;;15.38;9.40;;;2.90;93.20;;;;;;5072947;28;20447;-79
2021/03/24 01:04:31;;;;;;;18.38;10.13;;;2.90;93.70;;;;;;5072803;28;20028;-78
2021/03/24 01:06:56;;;;;;;17.27;10.40;;;3.00;94.00;;;;;;5072957;28;20098;-78
2021/03/24 01:09:22;;;;;;;21.17;11.65;;;3.00;95.50;;;;;;5072866;28;20040;-78
2021/03/24 01:11:48;;;;;;;23.50;12.27;;;3.10;95.60;;;;;;5072340;28;20078;-78
2021/03/24 01:14:14;;;;;;;16.80;10.52;;;3.10;94.50;;;;;;5071730;28;20024;-78
2021/03/24 01:16:40;;;;;;;12.48;9.00;;;3.10;94.30;;;;;;5071087;28;20025;-78
2021/03/24 01:19:06;;;;;;;10.93;6.43;;;2.90;94.80;;;;;;5072965;28;20035;-79
2021/03/24 01:21:32;;;;;;;7.57;4.70;;;3.10;94.80;;;;;;5072966;28;20032;-78
2021/03/24 01:23:57;;;;;;;6.18;4.28;;;3.20;95.80;;;;;;5072832;28;20032;-78
2021/03/24 01:26:23;;;;;;;6.80;3.97;;;3.30;94.20;;;;;;5071096;28;20063;-78
2021/03/24 01:28:57;;;;;;;7.70;4.32;;;3.10;93.80;;;;;;5071608;28;20052;-78
2021/03/24 01:31:24;;;;;;;5.97;4.03;;;3.00;94.20;;;;;;5071858;28;20503;-78
2021/03/24 01:33:50;;;;;;;7.72;5.15;;;2.80;93.50;;;;;;5072679;28;20043;-78
2021/03/24 01:36:16;;;;;;;10.02;5.15;;;2.30;94.40;;;;;;5072600;28;20481;-78
2021/03/24 01:38:41;;;;;;;9.25;5.00;;;2.20;95.00;;;;;;5072757;28;20052;-78
2021/03/24 01:41:07;;;;;;;5.68;4.03;;;2.30;95.80;;;;;;5070592;28;20067;-78
2021/03/24 01:43:35;;;;;;;7.05;3.35;;;2.50;96.00;;;;;;5072389;28;20511;-78
2021/03/24 01:46:19;;;;;;;5.78;4.45;;;2.50;95.20;;;;;;5071680;28;20029;-78
2021/03/24 01:49:01;;;;;;;8.77;5.47;;;2.60;96.00;;;;;;5056630;28;20021;-78
2021/03/24 01:51:32;;;;;;;7.97;4.35;;;2.60;95.30;;;;;;5056683;28;20025;-78
2021/03/24 01:53:58;;;;;;;9.10;4.30;;;2.50;95.20;;;;;;5056372;28;20029;-78
2021/03/24 01:56:29;;;;;;;10.00;7.55;;;2.60;95.20;;;;;;5060457;28;20020;-78
2021/03/24 01:58:56;;;;;;;5.90;4.43;;;2.40;96.30;;;;;;5076389;28;20020;-78
2021/03/24 02:01:22;;;;;;;7.50;3.88;;;2.20;94.90;;;;;;5062773;28;20413;-78
2021/03/24 02:03:49;;;;;;;5.25;3.22;;;1.80;96.70;;;;;;5056534;28;20021;-78
2021/03/24 02:06:47;;;;;;;9.85;3.97;;;1.90;96.00;;;;;;5056346;28;20033;-78
2021/03/24 02:09:36;;;;;;;5.40;3.17;;;2.00;95.90;;;;;;5067091;28;20477;-78
2021/03/24 02:12:11;;;;;;;5.15;3.63;;;1.90;95.10;;;;;;5074313;28;20029;-78
2021/03/24 02:15:03;;;;;;;5.13;3.75;;;1.90;95.50;;;;;;5075653;28;20017;-78
2021/03/24 02:17:32;;;;;;;7.88;4.25;;;1.90;96.70;;;;;;5076176;28;20077;-78
2021/03/24 02:20:09;;;;;;;6.28;4.22;;;1.90;96.50;;;;;;5076166;28;20028;-78
2021/03/24 02:22:58;;;;;;;6.60;4.07;;;2.00;96.70;;;;;;5075665;28;20032;-78
2021/03/24 02:25:36;;;;;;;9.20;4.50;;;2.00;95.90;;;;;;5075331;28;20032;-78
2021/03/24 02:28:08;;;;;;;6.20;4.22;;;2.10;96.90;;;;;;5075293;28;20464;-78
2021/03/24 02:30:37;;;;;;;6.82;3.63;;;2.00;95.50;;;;;;5075355;28;20052;-78
2021/03/24 02:33:11;;;;;;;12.07;4.63;;;1.90;95.50;;;;;;5075512;28;20063;-78
2021/03/24 02:35:52;;;;;;;7.82;5.38;;;1.90;95.70;;;;;;5075601;28;20028;-78
2021/03/24 02:38:21;;;;;;;10.45;5.72;;;1.90;95.50;;;;;;5075721;28;20423;-78
2021/03/24 02:40:48;;;;;;;9.88;7.93;;;1.80;95.90;;;;;;5074688;28;20024;-78
2021/03/24 02:43:14;;;;;;;12.45;7.55;;;1.90;96.30;;;;;;5068391;28;20527;-78
2021/03/24 02:45:44;;;;;;;10.32;6.88;;;1.90;96.50;;;;;;5075260;28;20051;-78
2021/03/24 02:48:27;;;;;;;11.10;8.00;;;2.00;96.30;;;;;;5075527;28;20021;-78
2021/03/24 02:50:55;;;;;;;11.00;7.80;;;1.90;96.40;;;;;;5075520;28;20503;-78
2021/03/24 02:53:22;;;;;;;11.57;7.70;;;2.10;96.70;;;;;;5075165;28;20507;-78
2021/03/24 02:55:49;;;;;;;14.02;9.00;;;2.00;95.90;;;;;;5074167;28;20070;-78
2021/03/24 02:58:15;;;;;;;11.57;7.75;;;1.90;96.10;;;;;;5074498;28;20028;-78
2021/03/24 03:00:41;;;;;;;8.77;7.32;;;1.90;96.30;;;;;;5074946;28;20036;-78
2021/03/24 03:03:22;;;;;;;11.60;7.35;;;1.90;97.10;;;;;;5075428;28;20075;-78
2021/03/24 03:05:50;;;;;;;7.72;6.60;;;1.80;96.70;;;;;;5075327;28;20365;-78
2021/03/24 03:08:21;;;;;;;8.43;6.60;;;1.70;96.00;;;;;;5073572;28;20021;-78
2021/03/24 03:10:55;;;;;;;12.15;6.00;;;1.70;95.90;;;;;;5075213;28;20650;-78
2021/03/24 03:13:53;;;;;;;8.95;6.60;;;1.60;96.50;;;;;;5075166;28;20036;-78
2021/03/24 03:16:51;;;;;;;11.10;6.13;;;1.60;96.40;;;;;;5048187;28;20132;-78
2021/03/24 03:19:31;;;;;;;8.15;4.97;;;1.50;98.00;;;;;;5013087;28;20052;-78
2021/03/24 03:22:15;;;;;;;7.53;5.05;;;1.70;98.90;;;;;;5013965;28;20042;-78
2021/03/24 03:24:46;;;;;;;8.35;5.47;;;1.70;99.40;;;;;;5012627;28;20037;-78
2021/03/24 03:27:15;;;;;;;7.25;4.30;;;2.00;99.90;;;;;;5022819;28;20187;-78
2021/03/24 03:29:43;;;;;;;5.83;4.47;;;2.10;98.80;;;;;;5029197;28;20119;-78
2021/03/24 03:32:15;;;;;;;9.85;5.57;;;2.10;98.00;;;;;;5012740;28;20292;-78
2021/03/24 03:34:45;;;;;;;7.65;5.60;;;2.00;98.20;;;;;;4996142;28;20044;-78
2021/03/24 03:37:11;;;;;;;6.47;5.45;;;1.90;97.20;;;;;;5012242;28;20145;-78
2021/03/24 03:39:38;;;;;;;6.88;5.28;;;1.70;97.00;;;;;;5012711;28;20038;-78
2021/03/24 03:42:05;;;;;;;7.03;5.20;;;1.50;97.90;;;;;;5012565;28;20042;-77
2021/03/24 03:44:33;;;;;;;5.80;5.13;;;1.70;99.40;;;;;;5014873;28;20548;-77
2021/03/24 03:47:09;;;;;;;5.55;3.42;;;1.80;99.40;;;;;;5025951;28;20045;-78
2021/03/24 03:49:37;;;;;;;5.40;3.88;;;1.80;98.00;;;;;;5032323;28;20037;-78
2021/03/24 03:52:21;;;;;;;7.40;4.70;;;1.70;96.40;;;;;;5015274;28;20534;-78
2021/03/24 03:55:03;;;;;;;8.10;4.07;;;1.50;95.80;;;;;;5051791;28;20486;-78
2021/03/24 03:57:58;;;;;;;7.18;4.80;;;1.30;97.20;;;;;;5073503;28;20166;-78
2021/03/24 04:00:30;;;;;;;7.07;4.25;;;1.50;97.80;;;;;;5074053;28;20174;-78
2021/03/24 04:02:59;;;;;;;6.15;4.32;;;1.60;97.50;;;;;;5073794;28;20025;-78
2021/03/24 04:05:37;;;;;;;5.88;3.17;;;1.70;97.10;;;;;;5074162;28;20068;-78
2021/03/24 04:08:16;;;;;;;4.53;3.47;;;1.40;96.60;;;;;;5067976;28;20025;-78
2021/03/24 04:10:50;;;;;;;12.27;5.22;;;1.10;96.10;;;;;;5073846;28;20033;-78
2021/03/24 04:13:16;;;;;;;7.07;4.82;;;1.10;97.20;;;;;;5073989;28;20028;-78
2021/03/24 04:15:42;;;;;;;10.68;6.63;;;1.10;99.30;;;;;;5073597;28;20364;-77
2021/03/24 04:18:16;;;;;;;6.18;4.85;;;1.30;99.90;;;;;;5073900;28;20028;-77
2021/03/24 04:20:42;;;;;;;8.55;5.20;;;1.50;99.50;;;;;;5073299;28;20066;-77
2021/03/24 04:23:13;;;;;;;6.82;4.78;;;1.60;99.60;;;;;;5073760;28;20016;-78
2021/03/24 04:26:00;;;;;;;9.95;5.85;;;1.60;97.90;;;;;;5071517;28;20017;-78
2021/03/24 04:28:31;;;;;;;7.75;5.30;;;1.40;98.40;;;;;;5073141;28;20029;-78
2021/03/24 04:31:01;;;;;;;8.07;4.70;;;1.30;98.60;;;;;;5073348;28;20514;-78
2021/03/24 04:33:27;;;;;;;9.30;4.82;;;1.30;97.40;;;;;;5073499;28;20020;-78
2021/03/24 04:35:57;;;;;;;8.25;4.40;;;1.20;98.20;;;;;;5072174;28;20035;-78
2021/03/24 04:38:33;;;;;;;7.97;4.95;;;1.20;97.80;;;;;;5073500;28;20032;-78
2021/03/24 04:41:04;;;;;;;9.10;5.15;;;1.10;96.70;;;;;;5073494;28;20025;-78
2021/03/24 04:43:33;;;;;;;6.88;5.25;;;1.00;98.20;;;;;;5073427;28;20020;-78
2021/03/24 04:46:16;;;;;;;13.40;7.53;;;1.20;99.80;;;;;;5073115;28;20024;-78
2021/03/24 04:48:45;;;;;;;7.95;5.57;;;1.40;99.00;;;;;;5073251;28;20035;-78
2021/03/24 04:51:27;;;;;;;12.55;4.93;;;1.30;98.20;;;;;;5060042;28;20029;-77
2021/03/24 04:54:09;;;;;;;8.68;4.85;;;1.20;97.90;;;;;;5052969;28;20024;-78
2021/03/24 04:56:37;;;;;;;5.40;2.80;;;1.20;99.90;;;;;;5063588;28;20024;-78
2021/03/24 04:59:04;;;;;;;4.57;3.67;;;1.30;99.90;;;;;;5073213;28;20028;-78
2021/03/24 05:01:41;;;;;;;5.32;3.30;;;1.30;99.50;;;;;;5071610;28;20386;-78
2021/03/24 05:04:15;;;;;;;5.13;3.35;;;1.20;98.70;;;;;;5072455;28;20036;-78
2021/03/24 05:06:48;;;;;;;6.18;4.57;;;1.10;97.60;;;;;;5066580;28;20044;-77
2021/03/24 05:09:14;;;;;;;6.82;5.18;;;0.90;97.70;;;;;;5063703;28;20029;-77
2021/03/24 05:12:03;;;;;;;7.18;4.85;;;0.70;97.60;;;;;;5052916;28;20028;-77
2021/03/24 05:14:35;;;;;;;7.77;4.73;;;0.70;98.30;;;;;;5047042;28;20044;-78
2021/03/24 05:17:16;;;;;;;8.32;2.90;;;0.70;99.00;;;;;;5052727;28;20350;-78
2021/03/24 05:19:44;;;;;;;7.78;3.95;;;0.70;99.20;;;;;;5067730;28;20104;-78
2021/03/24 05:22:27;;;;;;;5.00;3.70;;;0.80;99.30;;;;;;5068613;28;20013;-78
2021/03/24 05:25:05;;;;;;;11.98;4.82;;;0.80;98.50;;;;;;5052674;28;20071;-77
2021/03/24 05:27:41;;;;;;;16.15;5.43;;;0.70;99.80;;;;;;5072092;28;20116;-78
2021/03/24 05:30:21;;;;;;;9.60;2.95;;;0.70;99.60;;;;;;5072410;28;20055;-78
2021/03/24 05:32:52;;;;;;;6.13;3.15;;;0.50;99.10;;;;;;5072862;28;20055;-78
2021/03/24 05:35:47;;;;;;;9.77;3.58;;;0.60;99.90;;;;;;5061816;28;20025;-78
2021/03/24 05:38:24;;;;;;;5.72;3.10;;;0.70;99.70;;;;;;5057403;28;20167;-77
2021/03/24 05:41:15;;;;;;;5.70;3.38;;;0.70;99.00;;;;;;5061804;28;20103;-78
2021/03/24 05:43:40;;;;;;;6.63;3.47;;;0.50;98.80;;;;;;5078613;28;20032;-78
2021/03/24 05:46:45;;;;;;;5.22;3.17;;;0.50;98.70;;;;;;5063773;28;20082;-78
2021/03/24 05:49:18;;;;;;;12.70;6.80;;;0.40;98.30;;;;;;4988450;28;20551;-77
2021/03/24 05:52:09;;;;;;;14.65;8.88;;;0.50;99.30;;;;;;4988745;28;20042;-77
2021/03/24 05:54:49;;;;;;;12.23;7.63;;;0.40;98.60;;;;;;4989737;28;20545;-78
2021/03/24 05:57:24;;;;;;;48.40;27.80;;;0.40;98.80;;;;;;4988447;28;20029;-78
2021/03/24 06:00:34;;;;;;;15.25;8.32;;;0.40;99.00;;;;;;4987821;28;20035;-77
2021/03/24 06:03:34;;;;;;;13.02;8.93;;;0.30;99.50;;;;;;4968351;28;20027;-78
2021/03/24 06:06:37;;;;;;;10.50;8.18;;;0.40;99.90;;;;;;4934338;29;20138;-78
2021/03/24 06:09:17;;;;;;;16.08;10.65;;;0.70;99.90;;;;;;4932297;29;20071;-78
2021/03/24 06:12:00;;;;;;;28.30;17.13;;;0.90;99.90;;;;;;4934168;29;20028;-78
2021/03/24 06:14:55;;;;;;;45.08;24.95;;;0.80;98.30;;;;;;4945198;29;20065;-78
2021/03/24 06:17:40;;;;;;;25.73;17.77;;;0.80;98.80;;;;;;4938413;28;20055;-78
2021/03/24 06:20:35;;;;;;;21.02;13.90;;;0.80;98.60;;;;;;4940949;28;20040;-76
2021/03/24 06:23:25;;;;;;;11.32;7.50;;;0.80;97.60;;;;;;4936655;29;20028;-77
2021/03/24 06:26:04;;;;;;;12.48;6.93;;;0.70;97.70;;;;;;4961804;28;20364;-77
2021/03/24 06:28:53;;;;;;;13.77;8.38;;;0.70;97.90;;;;;;4996287;28;20042;-77
2021/03/24 06:31:47;;;;;;;19.75;10.27;;;0.70;97.50;;;;;;5004649;28;20130;-78
2021/03/24 06:34:31;;;;;;;18.23;10.32;;;0.80;98.10;;;;;;4995710;28;20040;-77
2021/03/24 06:37:35;;;;;;;27.65;19.42;;;0.90;98.90;;;;;;5005202;28;20511;-77
2021/03/24 06:40:38;;;;;;;19.88;12.80;;;1.10;99.10;;;;;;4991739;28;20132;-77
2021/03/24 06:43:16;;;;;;;256.25;130.00;;;1.40;99.90;;;;;;5005036;28;20031;-77
2021/03/24 06:46:08;;;;;;;249.68;122.35;;;1.50;99.20;;;;;;5032491;28;20465;-78
2021/03/24 06:49:09;;;;;;;90.00;48.53;;;1.70;99.70;;;;;;5032278;28;20037;-78
2021/03/24 06:52:11;;;;;;;73.78;44.58;;;1.80;99.90;;;;;;5021066;28;20136;-76
2021/03/24 06:54:57;;;;;;;35.55;20.00;;;1.90;99.20;;;;;;5031065;28;20136;-77
2021/03/24 06:57:56;;;;;;;15.82;10.13;;;2.10;98.50;;;;;;5029487;28;20037;-77
2021/03/24 07:00:24;;;;;;;15.02;7.60;;;2.20;97.60;;;;;;5029775;28;20041;-77
2021/03/24 07:03:14;;;;;;;12.90;5.95;;;2.30;96.90;;;;;;5030629;28;20042;-78
2021/03/24 07:05:58;;;;;;;;;;;2.40;97.60;;;;;;5029164;28;20038;-76
2021/03/24 07:08:30;;;;;;;22.33;13.68;;;2.50;97.80;;;;;;5029437;28;20004;-77
2021/03/24 07:11:23;;;;;;;32.72;18.58;;;2.50;98.60;;;;;;5030525;28;20041;-76
2021/03/24 07:13:51;;;;;;;25.98;16.05;;;2.50;99.90;;;;;;5023386;28;20537;-77
2021/03/24 07:16:35;;;;;;;12.98;7.82;;;2.80;99.90;;;;;;5050801;28;20078;-77
2021/03/24 07:19:28;;;;;;;7.40;4.80;;;3.00;99.30;;;;;;5070532;28;20021;-77
2021/03/24 07:22:30;;;;;;;9.77;3.78;;;3.00;97.30;;;;;;5065465;28;20021;-78
2021/03/24 07:25:10;;;;;;;9.77;5.78;;;2.80;97.30;;;;;;5068003;28;20396;-77
2021/03/24 07:28:26;;;;;;;9.55;6.18;;;2.60;98.40;;;;;;5069077;28;20016;-77
2021/03/24 07:31:00;;;;;;;18.95;10.07;;;2.60;99.30;;;;;;5030103;28;20045;-78
2021/03/24 07:34:01;;;;;;;12.10;7.38;;;2.90;98.80;;;;;;5030115;28;20037;-77
2021/03/24 07:36:42;;;;;;;10.45;5.95;;;3.40;97.90;;;;;;5025045;28;20051;-77
2021/03/24 07:39:26;;;;;;;9.73;4.85;;;3.70;96.30;;;;;;5031866;28;20602;-77
2021/03/24 07:42:16;;;;;;;13.88;7.07;;;4.00;95.40;;;;;;5031604;28;20021;-77
2021/03/24 07:44:42;;;;;;;;;;;4.20;96.80;;;;;;5030969;28;20171;-77
2021/03/24 07:47:30;;;;;;;12.02;6.88;;;4.40;96.50;;;;;;5031917;28;19991;-77
2021/03/24 07:50:03;;;;;;;11.38;6.53;;;4.60;95.80;;;;;;5031232;28;20017;-77
2021/03/24 07:53:05;;;;;;;10.45;6.57;;;4.90;95.30;;;;;;5032010;28;20195;-77
2021/03/24 07:55:58;;;;;;;13.10;8.27;;;5.30;94.10;;;;;;5018260;28;20034;-85
2021/03/24 07:58:38;;;;;;;12.32;8.18;;;5.50;94.10;;;;;;5011894;28;20089;-81
2021/03/24 08:01:24;;;;;;;9.40;6.72;;;5.80;93.20;;;;;;5011842;28;20065;-81
2021/03/24 08:04:09;;;;;;;10.13;6.90;;;6.20;91.30;;;;;;5019626;28;20095;-80
2021/03/24 08:06:56;;;;;;;8.82;6.00;;;6.80;91.70;;;;;;5053899;28;20144;-80
2021/03/24 08:09:48;;;;;;;8.63;5.03;;;7.10;91.40;;;;;;5066187;28;20056;-80
2021/03/24 08:12:20;;;;;;;6.45;4.90;;;7.50;91.00;;;;;;5073455;28;20549;-80
2021/03/24 08:15:16;;;;;;;9.98;5.10;;;7.80;89.50;;;;;;5073050;28;20507;-80
2021/03/24 08:17:59;;;;;;;10.65;4.80;;;8.10;88.50;;;;;;5073266;28;20516;-80
2021/03/24 08:20:37;;;;;;;4.93;4.43;;;8.50;86.70;;;;;;5073094;28;20040;-80
2021/03/24 08:23:40;;;;;;;5.82;3.33;;;8.70;84.00;;;;;;5073305;28;20021;-80
2021/03/24 08:26:41;;;;;;;5.20;3.63;;;9.20;79.00;;;;;;4991503;28;20138;-80
2021/03/24 08:29:24;;;;;;;5.63;3.30;;;9.60;80.80;;;;;;4991114;28;20137;-80
2021/03/24 08:32:17;;;;;;;4.70;3.47;;;9.90;76.10;;;;;;4991788;28;20038;-80
2021/03/24 08:35:19;;;;;;;6.05;2.80;;;10.20;74.80;;;;;;4991214;28;20526;-80
2021/03/24 08:37:45;;;;;;;4.35;3.22;;;10.70;72.90;;;;;;4991708;28;20070;-80
2021/03/24 08:40:47;;;;;;;6.63;3.47;;;11.10;71.60;;;;;;4991536;28;20597;-80
2021/03/24 08:43:36;;;;;;;4.55;3.50;;;11.40;72.60;;;;;;4990866;28;20494;-80
2021/03/24 08:46:23;;;;;;;3.80;3.05;;;15.20;61.70;;;;;;4991251;28;20025;-80
2021/03/24 08:48:50;;;;;;;5.13;3.08;;;19.70;52.20;;;;;;4991419;28;20073;-80
2021/03/24 08:51:34;;;;;;;4.38;2.72;;;21.20;43.00;;;;;;4971618;28;20380;-80
2021/03/24 08:54:08;;;;;;;6.35;3.20;;;22.10;40.50;;;;;;4971601;28;20045;-80
2021/03/24 08:57:05;;;;;;;4.43;3.00;;;22.70;40.70;;;;;;4971281;28;20458;-81
2021/03/24 08:59:40;;;;;;;3.67;2.45;;;22.60;35.70;;;;;;4971744;28;20034;-81
2021/03/24 09:02:25;;;;;;;6.40;3.05;;;22.80;37.40;;;;;;5003480;28;20045;-81
2021/03/24 09:05:08;;;;;;;5.50;3.50;;;23.40;36.70;;;;;;5052784;28;20036;-81
2021/03/24 09:07:33;;;;;;;5.15;2.75;;;24.00;34.70;;;;;;5052342;28;20040;-81
2021/03/24 09:09:59;;;;;;;4.90;2.60;;;23.80;35.70;;;;;;5052496;28;20485;-81
2021/03/24 09:12:39;;;;;;;4.90;2.95;;;24.10;33.00;;;;;;5052106;28;20055;-81
2021/03/24 09:15:10;;;;;;;3.35;3.05;;;24.80;32.00;;;;;;5052255;28;20374;-81
2021/03/24 09:18:02;;;;;;;5.38;3.53;;;25.10;33.50;;;;;;5052352;28;20028;-81
2021/03/24 09:20:57;;;;;;;4.60;3.20;;;25.20;34.50;;;;;;5048952;28;20138;-81
2021/03/24 09:23:55;;;;;;;3.63;3.10;;;25.80;33.10;;;;;;5052176;28;20497;-82
2021/03/24 09:26:32;;;;;;;4.93;3.00;;;25.80;34.60;;;;;;5051728;28;20108;-82
2021/03/24 09:29:24;;;;;;;5.28;3.53;;;25.10;34.90;;;;;;5052105;28;20056;-82
2021/03/24 09:32:21;;;;;;;2.85;2.60;;;25.60;34.30;;;;;;5028468;28;20087;-82
2021/03/24 09:34:47;;;;;;;4.63;3.25;;;25.60;34.80;;;;;;5051933;28;20127;-82
2021/03/24 09:37:16;;;;;;;4.55;2.90;;;26.10;32.50;;;;;;5052058;28;20525;-82
2021/03/24 09:39:45;;;;;;;3.25;2.45;;;25.90;31.90;;;;;;5051789;28;20021;-83
2021/03/24 09:42:27;;;;;;;4.72;2.92;;;26.20;30.70;;;;;;5052102;28;20037;-83
2021/03/24 09:44:53;;;;;;;4.10;2.80;;;26.90;29.70;;;;;;5052174;28;20023;-83
2021/03/24 09:47:37;;;;;;;3.50;2.20;;;26.80;31.60;;;;;;5060393;28;20036;-83
2021/03/24 09:50:25;;;;;;;5.68;2.80;;;27.10;30.60;;;;;;5072125;28;20017;-83
2021/03/24 09:53:00;;;;;;;2.95;2.75;;;27.40;30.30;;;;;;5010017;28;20225;-83
2021/03/24 09:55:37;;;;;;;3.45;3.15;;;27.80;30.60;;;;;;5009732;28;20037;-83
2021/03/24 09:58:15;;;;;;;3.38;3.08;;;27.90;29.80;;;;;;5010168;28;20042;-83
2021/03/24 10:00:53;;;;;;;3.90;2.80;;;28.10;29.20;;;;;;5009945;28;20034;-84
2021/03/24 10:03:37;;;;;;;4.82;2.75;;;28.60;30.10;;;;;;5010146;28;20042;-84
2021/03/24 10:06:06;;;;;;;4.03;2.30;;;27.90;29.10;;;;;;5010281;28;20486;-84
2021/03/24 10:08:37;;;;;;;2.97;2.55;;;27.40;29.60;;;;;;5013674;28;20109;-84
2021/03/24 10:11:15;;;;;;;4.15;2.70;;;26.90;32.00;;;;;;5013682;28;20065;-84
2021/03/24 10:13:47;;;;;;;3.10;2.80;;;28.70;30.70;;;;;;5013665;28;20053;-84
2021/03/24 10:16:32;;;;;;;3.60;2.60;;;28.90;28.90;;;;;;5014019;28;20073;-84
2021/03/24 10:19:10;;;;;;;3.33;2.28;;;29.50;27.40;;;;;;5013937;28;20116;-84
2021/03/24 10:21:48;;;;;;;6.70;3.50;;;29.30;28.60;;;;;;5013660;28;20030;-84
2021/03/24 10:24:26;;;;;;;3.58;2.58;;;29.20;28.90;;;;;;4996803;28;20037;-85
2021/03/24 10:26:56;;;;;;;4.85;3.10;;;29.80;28.80;;;;;;5013555;28;20026;-85
2021/03/24 10:30:06;;;;;;;3.83;3.40;;;30.20;28.80;;;;;;5030742;28;20040;-85
2021/03/24 10:32:44;;;;;;;7.55;3.00;;;28.90;29.20;;;;;;5074849;28;20072;-85
2021/03/24 10:35:23;;;;;;;10.07;3.70;;;30.00;29.20;;;;;;5075377;28;20028;-85
2021/03/24 10:37:59;;;;;;;3.97;2.93;;;29.60;29.70;;;;;;5074889;28;20112;-85
2021/03/24 10:40:31;;;;;;;4.25;3.42;;;27.70;29.90;;;;;;5075124;28;20287;-85
2021/03/24 10:43:07;;;;;;;34.72;5.38;;;26.70;32.40;;;;;;5075239;28;20024;-85
2021/03/24 10:45:44;;;;;;;5.63;2.67;;;28.40;31.70;;;;;;5074963;28;20085;-84
2021/03/24 10:48:23;;;;;;;3.25;2.72;;;27.60;29.50;;;;;;5075007;28;20033;-84
2021/03/24 10:51:07;;;;;;;5.03;2.45;;;28.30;29.80;;;;;;5075013;28;20384;-84
2021/03/24 10:53:34;;;;;;;8.60;3.05;;;30.30;27.80;;;;;;5074622;28;20027;-84
2021/03/24 10:56:06;;;;;;;3.92;2.80;;;31.00;28.30;;;;;;5074936;28;20399;-84
2021/03/24 10:59:16;;;;;;;3.17;2.47;;;32.90;30.90;;;;;;5074734;28;20488;-84
2021/03/24 11:02:16;;;;;;;2.92;2.60;;;34.30;28.40;;;;;;5012855;28;20564;-84
2021/03/24 11:04:53;;;;;;;14.05;3.08;;;34.50;26.50;;;;;;5012180;28;20517;-84
2021/03/24 11:07:37;;;;;;;2.75;2.55;;;34.40;27.20;;;;;;5012602;28;20045;-84
2021/03/24 11:10:11;;;;;;;46.85;5.03;;;33.70;25.90;;;;;;5012799;28;20090;-84
2021/03/24 11:12:48;;;;;;;11.15;2.90;;;33.80;26.60;;;;;;5012615;28;20080;-84
2021/03/24 11:15:30;;;;;;;2.88;2.35;;;33.70;24.60;;;;;;5012722;28;20018;-85
2021/03/24 11:18:04;;;;;;;2.88;2.40;;;33.10;25.60;;;;;;5012531;28;20388;-85
2021/03/24 11:20:41;;;;;;;2.97;2.78;;;34.70;25.20;;;;;;5012399;28;20465;-84
2021/03/24 11:23:12;;;;;;;3.15;2.95;;;33.10;25.10;;;;;;5012322;28;20038;-84
2021/03/24 11:25:49;;;;;;;4.13;3.72;;;32.30;27.20;;;;;;5012441;28;20033;-84
2021/03/24 11:28:43;;;;;;;3.78;3.47;;;34.70;27.20;;;;;;5012437;28;20064;-84
2021/03/24 11:31:17;;;;;;;4.30;3.90;;;36.60;27.10;;;;;;5012436;28;20057;-85
2021/03/24 11:34:06;;;;;;;4.03;3.55;;;36.80;26.70;;;;;;5012264;28;20050;-84
2021/03/24 11:37:04;;;;;;;4.10;3.72;;;37.20;27.20;;;;;;5023911;28;20119;-85
2021/03/24 11:39:42;;;;;;;3.40;3.10;;;36.60;25.20;;;;;;5074023;28;20036;-85
2021/03/24 11:42:20;;;;;;;4.18;3.80;;;36.40;26.90;;;;;;5074097;28;20027;-85
2021/03/24 11:44:48;;;;;;;11.15;4.10;;;36.30;26.00;;;;;;5073701;28;20035;-85
2021/03/24 11:47:39;;;;;;;5.80;4.18;;;36.20;26.50;;;;;;5073846;28;20017;-85
2021/03/24 11:50:13;;;;;;;4.75;4.10;;;36.40;26.00;;;;;;5073327;28;20089;-85
2021/03/24 11:53:14;;;;;;;2.95;2.75;;;36.60;26.50;;;;;;5072408;28;20408;-85
2021/03/24 11:55:55;;;;;;;3.50;3.20;;;36.40;26.80;;;;;;5073649;28;20028;-85
2021/03/24 11:58:45;;;;;;;17.40;3.72;;;36.80;26.90;;;;;;5073600;28;20029;-85
2021/03/24 12:01:19;;;;;;;;;;;36.70;27.10;;;;;;5074055;28;20029;-85
2021/03/24 12:03:48;;;;;;;6.47;5.88;;;37.00;26.80;;;;;;5073440;28;19904;-85
2021/03/24 12:06:29;;;;;;;3.38;2.83;;;37.00;26.70;;;;;;5073557;28;20465;-85
2021/03/24 12:09:09;;;;;;;11.45;3.50;;;37.70;24.30;;;;;;5073465;28;20028;-85
2021/03/24 12:11:39;;;;;;;5.88;3.15;;;37.40;26.10;;;;;;5073405;28;20020;-86
2021/03/24 12:14:17;;;;;;;3.25;2.95;;;37.10;25.50;;;;;;5073248;28;20059;-85
2021/03/24 12:16:50;;;;;;;2.72;2.53;;;37.10;26.30;;;;;;5073361;28;20093;-85
2021/03/24 12:19:35;;;;;;;4.25;2.83;;;37.60;26.30;;;;;;5072979;28;20036;-85
2021/03/24 12:22:26;;;;;;;3.47;3.03;;;37.70;26.60;;;;;;5073090;28;20122;-85
2021/03/24 12:25:21;;;;;;;3.10;2.80;;;36.90;25.20;;;;;;5072912;28;20031;-85
2021/03/24 12:28:02;;;;;;;3.70;2.78;;;37.00;25.60;;;;;;5073050;28;20067;-85
2021/03/24 12:30:40;;;;;;;6.60;3.38;;;37.10;25.90;;;;;;5072373;28;20066;-85
2021/03/24 12:33:27;;;;;;;4.03;3.20;;;37.50;26.80;;;;;;5072958;28;20029;-85
2021/03/24 12:36:18;;;;;;;6.88;2.97;;;37.50;25.60;;;;;;5072459;28;20033;-86
2021/03/24 12:38:53;;;;;;;2.60;2.40;;;37.50;27.10;;;;;;5072946;28;20024;-85
2021/03/24 12:41:37;;;;;;;2.97;2.65;;;37.70;24.10;;;;;;5072781;28;20031;-85
2021/03/24 12:44:24;;;;;;;5.65;3.72;;;37.50;26.30;;;;;;5072822;28;20085;-85
2021/03/24 12:46:56;;;;;;;2.80;2.60;;;37.30;25.00;;;;;;5072483;28;20485;-86
2021/03/24 12:49:30;;;;;;;4.05;2.50;;;37.30;26.80;;;;;;5072368;28;20034;-86
2021/03/24 12:52:31;;;;;;;2.90;2.65;;;37.10;24.80;;;;;;5072562;28;20062;-86
2021/03/24 12:54:57;;;;;;;3.00;2.80;;;37.20;25.10;;;;;;5072636;28;20384;-86
2021/03/24 12:57:38;;;;;;;3.03;2.80;;;37.10;25.00;;;;;;5072467;28;20024;-86
2021/03/24 13:00:38;;;;;;;4.38;3.30;;;37.10;23.90;;;;;;5072463;28;20054;-86
2021/03/24 13:03:37;;;;;;;5.10;2.80;;;35.30;25.30;;;;;;5072204;28;20028;-86
2021/03/24 13:06:28;;;;;;;4.32;2.58;;;35.00;24.80;;;;;;5072583;28;20115;-86
2021/03/24 13:09:24;;;;;;;2.92;2.72;;;35.90;25.00;;;;;;5072842;28;20521;-86
2021/03/24 13:12:05;;;;;;;3.25;2.72;;;36.60;26.50;;;;;;5072206;28;20404;-86
2021/03/24 13:14:39;;;;;;;2.80;2.60;;;35.20;24.50;;;;;;5072361;28;20035;-86
2021/03/24 13:17:04;;;;;;;3.17;2.70;;;35.50;25.10;;;;;;5071959;28;20025;-86
2021/03/24 13:19:57;;;;;;;4.22;3.85;;;36.20;25.00;;;;;;5072254;28;20032;-85
2021/03/24 13:22:31;;;;;;;3.70;2.78;;;36.70;25.00;;;;;;5072460;28;20035;-86
2021/03/24 13:25:03;;;;;;;9.60;4.38;;;37.30;26.80;;;;;;5072128;28;20028;-86
2021/03/24 13:27:31;;;;;;;2.90;2.70;;;37.40;25.70;;;;;;5072385;28;20021;-86
2021/03/24 13:30:45;;;;;;;2.70;2.33;;;37.00;24.40;;;;;;5072043;28;20044;-86
2021/03/24 13:33:30;;;;;;;3.17;2.58;;;37.30;26.80;;;;;;5009976;28;20038;-86
2021/03/24 13:36:21;;;;;;;4.18;2.60;;;37.00;25.10;;;;;;5010244;28;20045;-86
2021/03/24 13:39:07;;;;;;;4.20;2.92;;;37.10;26.60;;;;;;5010269;28;20026;-86
2021/03/24 13:41:40;;;;;;;3.08;2.63;;;37.40;27.00;;;;;;5011135;28;20494;-86
2021/03/24 13:44:15;;;;;;;8.43;3.33;;;36.70;25.90;;;;;;4997760;28;20061;-86
2021/03/24 13:46:45;;;;;;;2.90;2.70;;;36.60;28.00;;;;;;5013823;28;20034;-86
2021/03/24 13:49:35;;;;;;;5.60;3.40;;;37.00;27.50;;;;;;5014260;28;20113;-86